LFBE/EGC METAR and TAF weather

Enter ICAO airport designator
Station Type Date Time Source
LFBE METAR 2022/08/13 11:30 UTC NOAA

LFBE 131130Z AUTO VRB04KT CAVOK 31/19 Q1011 NOSIG


Station Type Date Time Source
LFBE Decoded METAR 2022/08/13 11:30 UTC NOAA

Bergerac, France (LFBE) 44-49N 000-31E 52M
Aug 13, 2022 - 07:30 AM EDT / 2022.08.13 1130 UTC
Wind: Variable at 5 MPH (4 KT):0
Visibility: greater than 7 mile(s):0
Temperature: 87 F (31 C)
Dew Point: 66 F (19 C)
Relative Humidity: 48%
Pressure (altimeter): 29.85 in. Hg (1011 hPa)
ob: LFBE 131130Z AUTO VRB04KT CAVOK 31/19 Q1011 NOSIG
cycle: 11

Station Type Date Time Source
LFBE TAF 2022/08/13 12:21 UTC NOAA

TAF LFBE 131100Z 1312/1412 26005KT CAVOK
BECMG 1316/1318 30010KT
TEMPO 1320/1401 VRB20G30KT 4500 TSRA SCT060CB PROB30
TEMPO 1320/1322 VRB25G40KT 2000 TSGR BKN060CB PROB30
TEMPO 1401/1412 4000 TSRA SCT025CB

Example: see airport list